sensor_id;sensor_type;location;lat;lon;timestamp;temperature;humidity
21355;DHT22;10835;50.148;19.760;2023-06-14T00:00:02;27.00;47.40
21355;DHT22;10835;50.148;19.760;2023-06-14T00:02:33;26.80;46.70
21355;DHT22;10835;50.148;19.760;2023-06-14T00:05:01;26.50;47.30
21355;DHT22;10835;50.148;19.760;2023-06-14T00:07:41;26.60;47.60
21355;DHT22;10835;50.148;19.760;2023-06-14T00:10:11;26.60;47.60
21355;DHT22;10835;50.148;19.760;2023-06-14T00:12:40;26.70;47.50
21355;DHT22;10835;50.148;19.760;2023-06-14T00:15:08;26.70;47.30
21355;DHT22;10835;50.148;19.760;2023-06-14T00:17:37;26.70;47.50
21355;DHT22;10835;50.148;19.760;2023-06-14T00:20:06;26.70;47.70
21355;DHT22;10835;50.148;19.760;2023-06-14T00:22:36;26.60;47.70
21355;DHT22;10835;50.148;19.760;2023-06-14T00:25:07;26.70;47.70
21355;DHT22;10835;50.148;19.760;2023-06-14T00:27:54;26.70;47.70
21355;DHT22;10835;50.148;19.760;2023-06-14T00:30:22;26.90;47.70
21355;DHT22;10835;50.148;19.760;2023-06-14T00:32:51;26.90;48.10
21355;DHT22;10835;50.148;19.760;2023-06-14T00:35:21;26.60;47.50
21355;DHT22;10835;50.148;19.760;2023-06-14T00:37:49;26.70;48.30
21355;DHT22;10835;50.148;19.760;2023-06-14T00:40:19;26.70;47.50
21355;DHT22;10835;50.148;19.760;2023-06-14T00:42:48;26.30;48.20
21355;DHT22;10835;50.148;19.760;2023-06-14T00:45:16;26.10;48.20
21355;DHT22;10835;50.148;19.760;2023-06-14T00:47:46;26.30;48.80
21355;DHT22;10835;50.148;19.760;2023-06-14T00:50:15;26.50;48.40
21355;DHT22;10835;50.148;19.760;2023-06-14T00:52:44;26.50;48.20
21355;DHT22;10835;50.148;19.760;2023-06-14T00:55:13;26.70;48.30
21355;DHT22;10835;50.148;19.760;2023-06-14T00:57:42;26.70;48.20
21355;DHT22;10835;50.148;19.760;2023-06-14T01:00:13;26.60;48.20
21355;DHT22;10835;50.148;19.760;2023-06-14T01:02:42;26.70;48.20
21355;DHT22;10835;50.148;19.760;2023-06-14T01:05:11;26.70;48.10
21355;DHT22;10835;50.148;19.760;2023-06-14T01:07:51;26.80;48.40
21355;DHT22;10835;50.148;19.760;2023-06-14T01:10:33;27.10;47.90
21355;DHT22;10835;50.148;19.760;2023-06-14T01:13:10;27.10;47.80
21355;DHT22;10835;50.148;19.760;2023-06-14T01:15:41;27.00;47.90
21355;DHT22;10835;50.148;19.760;2023-06-14T01:18:11;27.00;47.80
21355;DHT22;10835;50.148;19.760;2023-06-14T01:20:45;27.00;48.00
21355;DHT22;10835;50.148;19.760;2023-06-14T01:23:15;26.80;48.10
21355;DHT22;10835;50.148;19.760;2023-06-14T01:25:44;26.90;48.20
21355;DHT22;10835;50.148;19.760;2023-06-14T01:28:15;27.00;48.50
21355;DHT22;10835;50.148;19.760;2023-06-14T01:30:45;27.10;47.80
21355;DHT22;10835;50.148;19.760;2023-06-14T01:33:16;27.10;47.80
21355;DHT22;10835;50.148;19.760;2023-06-14T01:35:47;27.20;47.40
21355;DHT22;10835;50.148;19.760;2023-06-14T01:38:19;27.30;47.50
21355;DHT22;10835;50.148;19.760;2023-06-14T01:40:48;27.40;47.50
21355;DHT22;10835;50.148;19.760;2023-06-14T01:43:18;27.40;47.50
21355;DHT22;10835;50.148;19.760;2023-06-14T01:45:48;27.20;47.50
21355;DHT22;10835;50.148;19.760;2023-06-14T01:48:18;27.10;48.10
21355;DHT22;10835;50.148;19.760;2023-06-14T01:50:48;27.10;47.90
21355;DHT22;10835;50.148;19.760;2023-06-14T01:53:18;27.20;47.70
21355;DHT22;10835;50.148;19.760;2023-06-14T01:55:46;27.20;47.80
21355;DHT22;10835;50.148;19.760;2023-06-14T01:58:16;27.30;47.90
21355;DHT22;10835;50.148;19.760;2023-06-14T02:00:44;27.30;48.00
21355;DHT22;10835;50.148;19.760;2023-06-14T02:03:14;27.30;47.70
21355;DHT22;10835;50.148;19.760;2023-06-14T02:05:43;27.40;47.80
21355;DHT22;10835;50.148;19.760;2023-06-14T02:08:11;27.40;47.50
21355;DHT22;10835;50.148;19.760;2023-06-14T02:10:41;27.40;47.60
21355;DHT22;10835;50.148;19.760;2023-06-14T02:13:09;27.30;47.40
21355;DHT22;10835;50.148;19.760;2023-06-14T02:15:39;27.20;47.70
21355;DHT22;10835;50.148;19.760;2023-06-14T02:18:11;27.20;47.70
21355;DHT22;10835;50.148;19.760;2023-06-14T02:20:40;27.10;47.60
21355;DHT22;10835;50.148;19.760;2023-06-14T02:23:08;27.30;48.40
21355;DHT22;10835;50.148;19.760;2023-06-14T02:25:37;27.20;47.90
21355;DHT22;10835;50.148;19.760;2023-06-14T02:28:08;27.10;48.10
21355;DHT22;10835;50.148;19.760;2023-06-14T02:30:39;27.20;48.40
21355;DHT22;10835;50.148;19.760;2023-06-14T02:33:07;27.00;48.00
21355;DHT22;10835;50.148;19.760;2023-06-14T02:35:40;26.80;48.40
21355;DHT22;10835;50.148;19.760;2023-06-14T02:38:08;26.60;48.50
21355;DHT22;10835;50.148;19.760;2023-06-14T02:40:36;26.40;48.80
21355;DHT22;10835;50.148;19.760;2023-06-14T02:43:05;26.60;49.70
21355;DHT22;10835;50.148;19.760;2023-06-14T02:45:37;26.80;48.90
21355;DHT22;10835;50.148;19.760;2023-06-14T02:48:05;26.90;48.70
21355;DHT22;10835;50.148;19.760;2023-06-14T02:50:33;27.00;48.50
21355;DHT22;10835;50.148;19.760;2023-06-14T02:53:02;27.00;48.70
21355;DHT22;10835;50.148;19.760;2023-06-14T02:55:30;26.90;48.70
21355;DHT22;10835;50.148;19.760;2023-06-14T02:57:58;26.80;48.80
21355;DHT22;10835;50.148;19.760;2023-06-14T03:00:28;27.00;48.80
21355;DHT22;10835;50.148;19.760;2023-06-14T03:02:59;27.10;48.40
21355;DHT22;10835;50.148;19.760;2023-06-14T03:05:29;27.20;48.30
21355;DHT22;10835;50.148;19.760;2023-06-14T03:07:57;27.30;48.20
21355;DHT22;10835;50.148;19.760;2023-06-14T03:10:27;27.10;48.70
21355;DHT22;10835;50.148;19.760;2023-06-14T03:12:57;27.10;48.80
21355;DHT22;10835;50.148;19.760;2023-06-14T03:15:25;27.10;49.00
21355;DHT22;10835;50.148;19.760;2023-06-14T03:17:54;27.10;48.70
21355;DHT22;10835;50.148;19.760;2023-06-14T03:20:24;27.10;49.10
21355;DHT22;10835;50.148;19.760;2023-06-14T03:22:56;26.80;49.10
21355;DHT22;10835;50.148;19.760;2023-06-14T03:25:25;26.90;49.30
21355;DHT22;10835;50.148;19.760;2023-06-14T03:27:56;26.80;49.20
21355;DHT22;10835;50.148;19.760;2023-06-14T03:30:25;27.00;48.80
21355;DHT22;10835;50.148;19.760;2023-06-14T03:32:54;27.00;48.40
21355;DHT22;10835;50.148;19.760;2023-06-14T03:35:28;27.00;48.30
21355;DHT22;10835;50.148;19.760;2023-06-14T03:37:56;27.00;49.00
21355;DHT22;10835;50.148;19.760;2023-06-14T03:40:25;26.90;48.50
21355;DHT22;10835;50.148;19.760;2023-06-14T03:43:03;26.30;49.20
21355;DHT22;10835;50.148;19.760;2023-06-14T03:45:31;26.10;50.00
21355;DHT22;10835;50.148;19.760;2023-06-14T03:48:02;25.80;49.70
21355;DHT22;10835;50.148;19.760;2023-06-14T03:50:35;25.80;50.30
21355;DHT22;10835;50.148;19.760;2023-06-14T03:53:05;25.90;50.50
21355;DHT22;10835;50.148;19.760;2023-06-14T03:55:36;26.20;50.10
21355;DHT22;10835;50.148;19.760;2023-06-14T03:58:25;26.20;49.90
21355;DHT22;10835;50.148;19.760;2023-06-14T04:00:55;26.20;49.90
21355;DHT22;10835;50.148;19.760;2023-06-14T04:03:24;26.10;50.20
21355;DHT22;10835;50.148;19.760;2023-06-14T04:05:58;25.80;50.30
21355;DHT22;10835;50.148;19.760;2023-06-14T04:08:27;25.50;51.00
21355;DHT22;10835;50.148;19.760;2023-06-14T04:10:57;25.40;51.40
21355;DHT22;10835;50.148;19.760;2023-06-14T04:13:26;25.30;51.30
21355;DHT22;10835;50.148;19.760;2023-06-14T04:15:54;25.40;52.10
21355;DHT22;10835;50.148;19.760;2023-06-14T04:18:28;25.50;52.80
21355;DHT22;10835;50.148;19.760;2023-06-14T04:20:58;25.80;51.80
21355;DHT22;10835;50.148;19.760;2023-06-14T04:23:29;25.80;51.80
21355;DHT22;10835;50.148;19.760;2023-06-14T04:25:58;26.00;51.40
21355;DHT22;10835;50.148;19.760;2023-06-14T04:28:29;26.20;51.30
21355;DHT22;10835;50.148;19.760;2023-06-14T04:31:00;26.40;50.80
21355;DHT22;10835;50.148;19.760;2023-06-14T04:33:31;26.50;50.70
21355;DHT22;10835;50.148;19.760;2023-06-14T04:36:04;26.40;50.90
21355;DHT22;10835;50.148;19.760;2023-06-14T04:38:35;26.60;50.40
21355;DHT22;10835;50.148;19.760;2023-06-14T04:41:04;26.70;50.30
21355;DHT22;10835;50.148;19.760;2023-06-14T04:43:32;26.60;50.30
21355;DHT22;10835;50.148;19.760;2023-06-14T04:46:07;26.60;50.50
21355;DHT22;10835;50.148;19.760;2023-06-14T04:48:39;26.70;50.30
21355;DHT22;10835;50.148;19.760;2023-06-14T04:51:11;26.70;51.40
21355;DHT22;10835;50.148;19.760;2023-06-14T04:53:42;26.30;51.00
21355;DHT22;10835;50.148;19.760;2023-06-14T04:56:12;26.40;51.20
21355;DHT22;10835;50.148;19.760;2023-06-14T04:58:40;26.50;51.10
21355;DHT22;10835;50.148;19.760;2023-06-14T05:01:13;26.70;51.10
21355;DHT22;10835;50.148;19.760;2023-06-14T05:03:41;26.90;50.90
21355;DHT22;10835;50.148;19.760;2023-06-14T05:06:17;27.00;50.50
21355;DHT22;10835;50.148;19.760;2023-06-14T05:08:45;26.90;50.70
21355;DHT22;10835;50.148;19.760;2023-06-14T05:11:14;27.20;50.40
21355;DHT22;10835;50.148;19.760;2023-06-14T05:13:44;27.20;50.00
21355;DHT22;10835;50.148;19.760;2023-06-14T05:16:13;27.30;50.10
21355;DHT22;10835;50.148;19.760;2023-06-14T05:18:46;27.40;49.70
21355;DHT22;10835;50.148;19.760;2023-06-14T05:21:15;27.30;49.30
21355;DHT22;10835;50.148;19.760;2023-06-14T05:23:45;26.80;49.40
21355;DHT22;10835;50.148;19.760;2023-06-14T05:26:13;26.60;50.40
21355;DHT22;10835;50.148;19.760;2023-06-14T05:28:42;26.50;50.70
21355;DHT22;10835;50.148;19.760;2023-06-14T05:31:10;26.40;51.20
21355;DHT22;10835;50.148;19.760;2023-06-14T05:33:38;26.10;52.10
21355;DHT22;10835;50.148;19.760;2023-06-14T05:36:07;26.30;52.60
21355;DHT22;10835;50.148;19.760;2023-06-14T05:38:37;25.70;52.90
21355;DHT22;10835;50.148;19.760;2023-06-14T05:41:05;25.70;53.50
21355;DHT22;10835;50.148;19.760;2023-06-14T05:43:33;26.20;52.60
21355;DHT22;10835;50.148;19.760;2023-06-14T05:46:01;26.60;52.90
21355;DHT22;10835;50.148;19.760;2023-06-14T05:48:30;26.90;52.20
21355;DHT22;10835;50.148;19.760;2023-06-14T05:51:01;26.80;51.50
21355;DHT22;10835;50.148;19.760;2023-06-14T05:53:30;26.70;51.40
21355;DHT22;10835;50.148;19.760;2023-06-14T05:55:59;26.90;52.30
21355;DHT22;10835;50.148;19.760;2023-06-14T05:58:28;27.30;51.20
21355;DHT22;10835;50.148;19.760;2023-06-14T06:00:56;26.80;51.20
21355;DHT22;10835;50.148;19.760;2023-06-14T06:03:24;27.00;51.80
21355;DHT22;10835;50.148;19.760;2023-06-14T06:05:56;27.10;51.40
21355;DHT22;10835;50.148;19.760;2023-06-14T06:08:25;27.10;50.40
21355;DHT22;10835;50.148;19.760;2023-06-14T06:10:53;27.30;50.90
21355;DHT22;10835;50.148;19.760;2023-06-14T06:13:26;27.30;50.20
21355;DHT22;10835;50.148;19.760;2023-06-14T06:15:56;27.40;50.70
21355;DHT22;10835;50.148;19.760;2023-06-14T06:18:24;27.50;50.10
21355;DHT22;10835;50.148;19.760;2023-06-14T06:20:53;27.50;50.10
21355;DHT22;10835;50.148;19.760;2023-06-14T06:23:25;27.60;50.10
21355;DHT22;10835;50.148;19.760;2023-06-14T06:25:53;27.60;49.80
21355;DHT22;10835;50.148;19.760;2023-06-14T06:28:26;27.50;49.70
21355;DHT22;10835;50.148;19.760;2023-06-14T06:30:55;27.50;49.70
21355;DHT22;10835;50.148;19.760;2023-06-14T06:33:23;27.50;49.70
21355;DHT22;10835;50.148;19.760;2023-06-14T06:35:52;27.30;49.40
21355;DHT22;10835;50.148;19.760;2023-06-14T06:38:20;27.40;49.90
21355;DHT22;10835;50.148;19.760;2023-06-14T06:40:48;27.50;49.70
21355;DHT22;10835;50.148;19.760;2023-06-14T06:43:16;27.40;49.60
21355;DHT22;10835;50.148;19.760;2023-06-14T06:45:48;27.50;49.80
21355;DHT22;10835;50.148;19.760;2023-06-14T06:48:17;27.60;49.70
21355;DHT22;10835;50.148;19.760;2023-06-14T06:50:45;27.60;49.40
21355;DHT22;10835;50.148;19.760;2023-06-14T06:53:13;27.70;49.40
21355;DHT22;10835;50.148;19.760;2023-06-14T06:55:47;27.80;49.30
21355;DHT22;10835;50.148;19.760;2023-06-14T06:58:15;27.80;49.40
21355;DHT22;10835;50.148;19.760;2023-06-14T07:00:43;27.70;49.70
21355;DHT22;10835;50.148;19.760;2023-06-14T07:03:13;27.70;50.20
21355;DHT22;10835;50.148;19.760;2023-06-14T07:05:44;27.70;49.40
21355;DHT22;10835;50.148;19.760;2023-06-14T07:08:13;27.70;49.40
21355;DHT22;10835;50.148;19.760;2023-06-14T07:10:41;27.80;49.30
21355;DHT22;10835;50.148;19.760;2023-06-14T07:13:12;27.80;49.30
21355;DHT22;10835;50.148;19.760;2023-06-14T07:15:40;27.70;49.10
21355;DHT22;10835;50.148;19.760;2023-06-14T07:18:09;27.70;49.20
21355;DHT22;10835;50.148;19.760;2023-06-14T07:20:40;27.40;49.20
21355;DHT22;10835;50.148;19.760;2023-06-14T07:23:10;27.40;49.40
21355;DHT22;10835;50.148;19.760;2023-06-14T07:25:38;27.40;49.50
21355;DHT22;10835;50.148;19.760;2023-06-14T07:28:07;27.50;50.50
21355;DHT22;10835;50.148;19.760;2023-06-14T07:30:35;27.50;49.60
21355;DHT22;10835;50.148;19.760;2023-06-14T07:33:03;27.70;50.00
21355;DHT22;10835;50.148;19.760;2023-06-14T07:35:33;27.80;50.30
21355;DHT22;10835;50.148;19.760;2023-06-14T07:38:02;27.90;50.20
21355;DHT22;10835;50.148;19.760;2023-06-14T07:40:30;28.10;49.60
21355;DHT22;10835;50.148;19.760;2023-06-14T07:42:59;27.90;49.30
21355;DHT22;10835;50.148;19.760;2023-06-14T07:45:28;28.10;49.50
21355;DHT22;10835;50.148;19.760;2023-06-14T07:47:56;28.10;49.60
21355;DHT22;10835;50.148;19.760;2023-06-14T07:50:25;28.20;49.20
21355;DHT22;10835;50.148;19.760;2023-06-14T07:52:53;28.20;49.00
21355;DHT22;10835;50.148;19.760;2023-06-14T07:55:22;28.20;49.20
21355;DHT22;10835;50.148;19.760;2023-06-14T07:57:52;28.20;49.10
21355;DHT22;10835;50.148;19.760;2023-06-14T08:00:21;28.20;49.40
21355;DHT22;10835;50.148;19.760;2023-06-14T08:02:49;28.20;49.00
21355;DHT22;10835;50.148;19.760;2023-06-14T08:05:25;28.30;49.40
21355;DHT22;10835;50.148;19.760;2023-06-14T08:07:54;28.40;49.40
21355;DHT22;10835;50.148;19.760;2023-06-14T08:10:23;28.30;48.70
21355;DHT22;10835;50.148;19.760;2023-06-14T08:12:52;28.30;49.10
21355;DHT22;10835;50.148;19.760;2023-06-14T08:15:22;28.40;48.90
21355;DHT22;10835;50.148;19.760;2023-06-14T08:17:50;28.40;48.70
21355;DHT22;10835;50.148;19.760;2023-06-14T08:20:19;28.40;49.00
21355;DHT22;10835;50.148;19.760;2023-06-14T08:22:47;28.50;48.60
21355;DHT22;10835;50.148;19.760;2023-06-14T08:25:15;28.60;48.60
21355;DHT22;10835;50.148;19.760;2023-06-14T08:27:45;28.70;48.90
21355;DHT22;10835;50.148;19.760;2023-06-14T08:30:17;28.60;49.40
21355;DHT22;10835;50.148;19.760;2023-06-14T08:32:45;28.60;48.80
21355;DHT22;10835;50.148;19.760;2023-06-14T08:35:22;28.60;48.90
21355;DHT22;10835;50.148;19.760;2023-06-14T08:37:50;28.60;48.90
21355;DHT22;10835;50.148;19.760;2023-06-14T08:40:20;28.60;49.00
21355;DHT22;10835;50.148;19.760;2023-06-14T08:42:54;28.60;49.60
21355;DHT22;10835;50.148;19.760;2023-06-14T08:45:23;28.60;49.30
21355;DHT22;10835;50.148;19.760;2023-06-14T08:47:55;28.60;49.10
21355;DHT22;10835;50.148;19.760;2023-06-14T08:50:27;28.70;48.80
21355;DHT22;10835;50.148;19.760;2023-06-14T08:53:01;28.70;48.90
21355;DHT22;10835;50.148;19.760;2023-06-14T08:55:32;28.80;49.20
21355;DHT22;10835;50.148;19.760;2023-06-14T08:58:05;28.90;50.10
21355;DHT22;10835;50.148;19.760;2023-06-14T09:00:36;28.80;49.20
21355;DHT22;10835;50.148;19.760;2023-06-14T09:03:05;28.90;49.20
21355;DHT22;10835;50.148;19.760;2023-06-14T09:05:37;28.50;48.80
21355;DHT22;10835;50.148;19.760;2023-06-14T09:08:06;28.60;48.80
21355;DHT22;10835;50.148;19.760;2023-06-14T09:10:37;28.80;49.50
21355;DHT22;10835;50.148;19.760;2023-06-14T09:13:07;28.80;49.00
21355;DHT22;10835;50.148;19.760;2023-06-14T09:15:35;28.90;49.00
21355;DHT22;10835;50.148;19.760;2023-06-14T09:18:03;29.00;49.90
21355;DHT22;10835;50.148;19.760;2023-06-14T09:20:33;28.80;48.20
21355;DHT22;10835;50.148;19.760;2023-06-14T09:23:02;28.90;49.60
21355;DHT22;10835;50.148;19.760;2023-06-14T09:25:32;28.90;48.70
21355;DHT22;10835;50.148;19.760;2023-06-14T09:28:10;28.90;49.60
21355;DHT22;10835;50.148;19.760;2023-06-14T09:30:39;28.80;49.00
21355;DHT22;10835;50.148;19.760;2023-06-14T09:33:08;28.80;48.80
21355;DHT22;10835;50.148;19.760;2023-06-14T09:35:36;29.00;49.70
21355;DHT22;10835;50.148;19.760;2023-06-14T09:38:04;29.00;50.00
21355;DHT22;10835;50.148;19.760;2023-06-14T09:40:36;28.90;49.80
21355;DHT22;10835;50.148;19.760;2023-06-14T09:43:06;29.00;49.80
21355;DHT22;10835;50.148;19.760;2023-06-14T09:45:37;29.00;50.40
21355;DHT22;10835;50.148;19.760;2023-06-14T09:48:08;29.20;50.90
21355;DHT22;10835;50.148;19.760;2023-06-14T09:50:37;29.30;50.00
21355;DHT22;10835;50.148;19.760;2023-06-14T09:53:07;29.10;49.60
21355;DHT22;10835;50.148;19.760;2023-06-14T09:55:36;29.10;49.20
21355;DHT22;10835;50.148;19.760;2023-06-14T09:58:07;29.20;49.80
21355;DHT22;10835;50.148;19.760;2023-06-14T10:00:37;29.00;50.60
21355;DHT22;10835;50.148;19.760;2023-06-14T10:03:12;28.90;49.80
21355;DHT22;10835;50.148;19.760;2023-06-14T10:05:43;28.90;49.10
21355;DHT22;10835;50.148;19.760;2023-06-14T10:08:14;28.80;49.40
21355;DHT22;10835;50.148;19.760;2023-06-14T10:10:44;28.70;50.40
21355;DHT22;10835;50.148;19.760;2023-06-14T10:13:13;28.70;50.00
21355;DHT22;10835;50.148;19.760;2023-06-14T10:15:52;28.80;49.70
21355;DHT22;10835;50.148;19.760;2023-06-14T10:18:31;29.00;49.20
21355;DHT22;10835;50.148;19.760;2023-06-14T10:21:12;29.10;49.50
21355;DHT22;10835;50.148;19.760;2023-06-14T10:23:42;29.20;48.50
21355;DHT22;10835;50.148;19.760;2023-06-14T10:26:19;29.30;48.30
21355;DHT22;10835;50.148;19.760;2023-06-14T10:29:00;29.30;49.00
21355;DHT22;10835;50.148;19.760;2023-06-14T10:31:44;29.20;47.40
21355;DHT22;10835;50.148;19.760;2023-06-14T10:34:21;29.20;48.30
21355;DHT22;10835;50.148;19.760;2023-06-14T10:37:05;29.30;49.60
21355;DHT22;10835;50.148;19.760;2023-06-14T10:39:38;29.30;48.50
21355;DHT22;10835;50.148;19.760;2023-06-14T10:42:08;29.30;48.30
21355;DHT22;10835;50.148;19.760;2023-06-14T10:44:44;29.30;49.00
21355;DHT22;10835;50.148;19.760;2023-06-14T10:47:28;29.20;49.30
21355;DHT22;10835;50.148;19.760;2023-06-14T10:50:03;28.80;49.10
21355;DHT22;10835;50.148;19.760;2023-06-14T10:52:34;28.60;49.30
21355;DHT22;10835;50.148;19.760;2023-06-14T10:55:10;28.20;50.10
21355;DHT22;10835;50.148;19.760;2023-06-14T10:57:45;28.10;50.50
21355;DHT22;10835;50.148;19.760;2023-06-14T11:00:19;28.10;50.00
21355;DHT22;10835;50.148;19.760;2023-06-14T11:05:52;28.20;50.90
21355;DHT22;10835;50.148;19.760;2023-06-14T11:08:56;28.00;51.00
21355;DHT22;10835;50.148;19.760;2023-06-14T11:11:32;28.00;51.20
21355;DHT22;10835;50.148;19.760;2023-06-14T11:14:03;27.90;51.40
21355;DHT22;10835;50.148;19.760;2023-06-14T11:16:32;27.90;51.60
21355;DHT22;10835;50.148;19.760;2023-06-14T11:19:01;28.10;51.40
21355;DHT22;10835;50.148;19.760;2023-06-14T11:21:33;28.10;51.60
21355;DHT22;10835;50.148;19.760;2023-06-14T11:24:01;28.50;51.20
21355;DHT22;10835;50.148;19.760;2023-06-14T11:26:31;28.50;50.70
21355;DHT22;10835;50.148;19.760;2023-06-14T11:29:02;28.10;49.70
21355;DHT22;10835;50.148;19.760;2023-06-14T11:31:30;28.30;50.90
21355;DHT22;10835;50.148;19.760;2023-06-14T11:33:59;28.30;50.70
21355;DHT22;10835;50.148;19.760;2023-06-14T11:36:28;28.40;50.30
21355;DHT22;10835;50.148;19.760;2023-06-14T11:39:00;28.60;49.80
21355;DHT22;10835;50.148;19.760;2023-06-14T11:41:35;28.60;49.50
21355;DHT22;10835;50.148;19.760;2023-06-14T11:44:04;28.50;50.40
21355;DHT22;10835;50.148;19.760;2023-06-14T11:46:33;28.40;50.60
21355;DHT22;10835;50.148;19.760;2023-06-14T11:49:04;28.20;50.50
21355;DHT22;10835;50.148;19.760;2023-06-14T11:51:35;28.20;51.20
21355;DHT22;10835;50.148;19.760;2023-06-14T11:54:06;27.70;51.00
21355;DHT22;10835;50.148;19.760;2023-06-14T11:56:36;28.00;51.80
21355;DHT22;10835;50.148;19.760;2023-06-14T11:59:05;28.00;51.10
21355;DHT22;10835;50.148;19.760;2023-06-14T12:01:36;27.80;50.80
21355;DHT22;10835;50.148;19.760;2023-06-14T12:04:06;28.00;51.30
21355;DHT22;10835;50.148;19.760;2023-06-14T12:06:35;27.80;51.40
21355;DHT22;10835;50.148;19.760;2023-06-14T12:09:08;28.00;51.50
21355;DHT22;10835;50.148;19.760;2023-06-14T12:15:31;28.50;50.80
21355;DHT22;10835;50.148;19.760;2023-06-14T12:18:56;28.80;52.00
21355;DHT22;10835;50.148;19.760;2023-06-14T12:21:46;29.00;50.00
21355;DHT22;10835;50.148;19.760;2023-06-14T12:24:44;28.50;49.90
21355;DHT22;10835;50.148;19.760;2023-06-14T12:28:28;28.90;50.20
21355;DHT22;10835;50.148;19.760;2023-06-14T12:32:08;28.70;50.20
21355;DHT22;10835;50.148;19.760;2023-06-14T12:36:47;29.30;50.30
21355;DHT22;10835;50.148;19.760;2023-06-14T12:39:54;29.10;50.00
21355;DHT22;10835;50.148;19.760;2023-06-14T12:42:56;29.10;52.70
21355;DHT22;10835;50.148;19.760;2023-06-14T12:45:44;28.90;49.10
21355;DHT22;10835;50.148;19.760;2023-06-14T12:49:01;29.20;49.60
21355;DHT22;10835;50.148;19.760;2023-06-14T12:52:42;28.50;49.80
21355;DHT22;10835;50.148;19.760;2023-06-14T12:55:36;29.20;48.70
21355;DHT22;10835;50.148;19.760;2023-06-14T12:58:19;29.20;47.30
21355;DHT22;10835;50.148;19.760;2023-06-14T13:01:16;29.20;47.90
21355;DHT22;10835;50.148;19.760;2023-06-14T13:03:49;29.50;49.00
21355;DHT22;10835;50.148;19.760;2023-06-14T13:07:01;29.60;48.00
21355;DHT22;10835;50.148;19.760;2023-06-14T13:09:43;29.20;46.70
21355;DHT22;10835;50.148;19.760;2023-06-14T13:12:41;29.20;47.60
21355;DHT22;10835;50.148;19.760;2023-06-14T13:16:19;29.50;47.40
21355;DHT22;10835;50.148;19.760;2023-06-14T13:19:34;29.60;48.70
21355;DHT22;10835;50.148;19.760;2023-06-14T13:23:12;30.10;48.60
21355;DHT22;10835;50.148;19.760;2023-06-14T13:26:34;30.40;47.30
21355;DHT22;10835;50.148;19.760;2023-06-14T13:29:27;30.60;46.40
21355;DHT22;10835;50.148;19.760;2023-06-14T13:32:25;30.70;46.90
21355;DHT22;10835;50.148;19.760;2023-06-14T13:35:18;31.00;45.80
21355;DHT22;10835;50.148;19.760;2023-06-14T13:38:04;31.10;45.20
21355;DHT22;10835;50.148;19.760;2023-06-14T13:40:57;31.10;45.70
21355;DHT22;10835;50.148;19.760;2023-06-14T13:43:53;31.20;45.30
21355;DHT22;10835;50.148;19.760;2023-06-14T13:46:46;30.60;44.80
21355;DHT22;10835;50.148;19.760;2023-06-14T13:49:30;30.60;44.90
21355;DHT22;10835;50.148;19.760;2023-06-14T13:52:05;30.80;45.40
21355;DHT22;10835;50.148;19.760;2023-06-14T13:54:47;30.80;45.90
21355;DHT22;10835;50.148;19.760;2023-06-14T13:57:46;30.70;42.80
21355;DHT22;10835;50.148;19.760;2023-06-14T14:00:31;30.10;44.10
21355;DHT22;10835;50.148;19.760;2023-06-14T14:03:22;30.00;45.10
21355;DHT22;10835;50.148;19.760;2023-06-14T14:06:00;29.20;46.50
21355;DHT22;10835;50.148;19.760;2023-06-14T14:09:00;29.40;48.00
21355;DHT22;10835;50.148;19.760;2023-06-14T14:11:52;29.00;47.30
21355;DHT22;10835;50.148;19.760;2023-06-14T14:14:36;29.30;47.20
21355;DHT22;10835;50.148;19.760;2023-06-14T14:17:23;29.00;47.40
21355;DHT22;10835;50.148;19.760;2023-06-14T14:19:55;28.80;47.70
21355;DHT22;10835;50.148;19.760;2023-06-14T14:22:37;29.40;46.10
21355;DHT22;10835;50.148;19.760;2023-06-14T14:25:12;29.00;46.20
21355;DHT22;10835;50.148;19.760;2023-06-14T14:28:09;29.10;46.60
21355;DHT22;10835;50.148;19.760;2023-06-14T14:30:47;29.40;47.00
21355;DHT22;10835;50.148;19.760;2023-06-14T14:33:29;29.70;46.40
21355;DHT22;10835;50.148;19.760;2023-06-14T14:36:07;29.50;44.10
21355;DHT22;10835;50.148;19.760;2023-06-14T14:38:48;29.50;45.60
21355;DHT22;10835;50.148;19.760;2023-06-14T14:41:41;29.40;45.00
21355;DHT22;10835;50.148;19.760;2023-06-14T14:44:17;29.50;45.00
21355;DHT22;10835;50.148;19.760;2023-06-14T14:47:07;29.30;44.40
21355;DHT22;10835;50.148;19.760;2023-06-14T14:49:50;29.00;45.10
21355;DHT22;10835;50.148;19.760;2023-06-14T14:56:05;29.20;45.60
21355;DHT22;10835;50.148;19.760;2023-06-14T15:01:39;29.30;47.60
21355;DHT22;10835;50.148;19.760;2023-06-14T15:04:42;29.30;46.70
21355;DHT22;10835;50.148;19.760;2023-06-14T15:08:24;29.30;47.50
21355;DHT22;10835;50.148;19.760;2023-06-14T15:17:05;29.70;46.10
21355;DHT22;10835;50.148;19.760;2023-06-14T15:24:38;30.00;45.50
21355;DHT22;10835;50.148;19.760;2023-06-14T15:28:31;30.00;45.20
21355;DHT22;10835;50.148;19.760;2023-06-14T15:37:07;30.10;45.40
21355;DHT22;10835;50.148;19.760;2023-06-14T15:44:35;30.00;44.60
21355;DHT22;10835;50.148;19.760;2023-06-14T15:47:04;29.90;44.90
21355;DHT22;10835;50.148;19.760;2023-06-14T15:49:34;29.90;45.70
21355;DHT22;10835;50.148;19.760;2023-06-14T15:52:05;29.60;45.30
21355;DHT22;10835;50.148;19.760;2023-06-14T15:54:33;29.30;45.60
21355;DHT22;10835;50.148;19.760;2023-06-14T15:57:02;29.30;45.90
21355;DHT22;10835;50.148;19.760;2023-06-14T15:59:30;29.00;45.10
21355;DHT22;10835;50.148;19.760;2023-06-14T16:02:00;28.80;46.40
21355;DHT22;10835;50.148;19.760;2023-06-14T16:04:28;29.00;47.30
21355;DHT22;10835;50.148;19.760;2023-06-14T16:06:56;29.30;47.40
21355;DHT22;10835;50.148;19.760;2023-06-14T16:09:24;29.30;46.60
21355;DHT22;10835;50.148;19.760;2023-06-14T16:11:53;29.60;46.60
21355;DHT22;10835;50.148;19.760;2023-06-14T16:14:22;29.80;45.20
21355;DHT22;10835;50.148;19.760;2023-06-14T16:16:50;30.20;45.50
21355;DHT22;10835;50.148;19.760;2023-06-14T16:19:21;30.20;45.80
21355;DHT22;10835;50.148;19.760;2023-06-14T16:21:49;30.10;45.40
21355;DHT22;10835;50.148;19.760;2023-06-14T16:24:17;29.80;45.80
21355;DHT22;10835;50.148;19.760;2023-06-14T16:26:46;29.80;45.40
21355;DHT22;10835;50.148;19.760;2023-06-14T16:29:14;29.90;46.10
21355;DHT22;10835;50.148;19.760;2023-06-14T16:31:45;29.80;45.80
21355;DHT22;10835;50.148;19.760;2023-06-14T16:34:13;29.90;45.70
21355;DHT22;10835;50.148;19.760;2023-06-14T16:36:45;29.60;45.70